Flight Track Log - Related Links

Times and Time Zones

All times are in EDT time to prevent confusion due to time zone crossing. See the TAM3377 flight status page for this flight to view local times or setup timezone preferences in your user account.

Time Position Orientation Groundspeed Altitude Reporting Facility
EDT Latitude Longitude Course Direction KTS MPH feet Rate Location/Type
Thu 10:05:40 AM -20.2570 -40.2890 106° East 126 145  Level FlightAware ADS-B
Thu 10:06:08 AM -20.2610 -40.2740 106° East 126 145 47 Level FlightAware ADS-B
Thu 10:06:58 AM -20.2570 -40.2890 286° West 126 145 48 Level FlightAware ADS-B
Thu 10:07:24 AM -20.2610 -40.2750 107° East 126 145 50 Level FlightAware ADS-B
Thu 10:09:02 AM -20.2570 -40.2890 287° West 126 145 51 Level FlightAware ADS-B
Thu 10:09:30 AM -20.2610 -40.2740 106° East 126 145 54 Level FlightAware ADS-B
Thu 10:10:00 AM -20.2570 -40.2890 286° West 126 145 56 Level FlightAware ADS-B
Thu 10:11:05 AM -20.2610 -40.2750 107° East 126 145 57 Level FlightAware ADS-B
Thu 10:12:31 AM -20.2570 -40.2890 287° West 126 145 60 Level FlightAware ADS-B
Thu 10:14:00 AM -20.2610 -40.2740 106° East 126 145 65 Level FlightAware ADS-B
Thu 10:14:15 AM -20.2570 -40.2890 286° West 126 145 70 Level FlightAware ADS-B
Thu 10:15:18 AM -20.2610 -40.2750 107° East 126 145 71 Level FlightAware ADS-B
Thu 10:16:30 AM -20.2610 -40.2740 90° East 126 145 76 Level FlightAware ADS-B
Thu 10:17:07 AM -20.2610 -40.2760 270° West 126 145 82 Level FlightAware ADS-B
Thu 10:17:15 AM -20.2570 -40.2890 288° West 126 145 86 Level FlightAware ADS-B
Thu 10:18:14 AM -20.2610 -40.2740 106° East 126 145 87 Level FlightAware ADS-B
Thu 10:18:44 AM -20.2610 -40.2750 270° West 126 145 94 Level FlightAware ADS-B
Thu 10:19:22 AM -20.2570 -40.2890 287° West 126 145 97 Level FlightAware ADS-B
Thu 10:22:00 AM -20.3806 -40.5169 240° Southwest  Level Estimated
Thu 10:22:20 AM -20.2610 -40.2750 240° Southwest 126 145  Level FlightAware ADS-B
Thu 10:22:56 AM -20.2570 -40.2890 287° West 126 145 137 Level FlightAware ADS-B
Thu 10:23:44 AM -20.2570 -40.2880 90° East 126 145 148 Level FlightAware ADS-B
Thu 10:26:00 AM -20.3634 -40.4842 240° Southwest  Level Estimated
Thu 10:27:00 AM -20.4103 -40.5708 240° Southwest  Level Estimated
Thu 10:27:52 AM -20.2580 -40.2890 240° Southwest 126 145  Level FlightAware ADS-B
Thu 10:28:00 AM -20.4572 -40.6575 240° Southwest  Level Estimated
Thu 10:28:37 AM -20.2610 -40.2910 212° Southwest 126 145  Level FlightAware ADS-B
Thu 10:29:01 AM -20.2630 -40.2920 205° Southwest 126 145 490 Level FlightAware ADS-B
Thu 10:29:57 AM -20.2640 -40.2910 137° Southeast 126 145 585 Level FlightAware ADS-B
Thu 10:30:24 AM -20.2580 -40.2870 32° Northeast 126 145 1,075 Level FlightAware ADS-B
Thu 10:31:04 AM -20.2320 -40.2700 32° Northeast 157 181 1,200 1,517 Climbing FlightAware ADS-B
Thu 10:31:51 AM -20.1980 -40.2460 34° Northeast 222 255 2,200 2,000 Climbing FlightAware ADS-B
Thu 10:32:16 AM -20.1870 -40.2160 69° East 241 277 3,600 3,000 Climbing FlightAware ADS-B
Thu 10:33:11 AM -20.2350 -40.1810 146° Southeast 262 302 6,200 2,327 Climbing FlightAware ADS-B
Thu 10:33:54 AM -20.2840 -40.1730 171° South 292 336 7,400 2,270 Climbing FlightAware ADS-B
Thu 10:34:25 AM -20.3330 -40.1690 176° South 301 346 9,000 2,917 Climbing FlightAware ADS-B
Thu 10:35:06 AM -20.4300 -40.2290 210° Southwest 359 413 10,900 2,514 Climbing FlightAware ADS-B
Thu 10:35:39 AM -20.4750 -40.2620 214° Southwest 368 423 12,100 2,526 Climbing FlightAware ADS-B
Thu 10:36:22 AM -20.5450 -40.3110 213° Southwest 371 427 14,100 2,475 Climbing FlightAware ADS-B
Thu 10:36:59 AM -20.5990 -40.3500 214° Southwest 377 434 15,400 1,820 Climbing FlightAware ADS-B
Thu 10:37:51 AM -20.6760 -40.4050 214° Southwest 392 451 16,800 1,714 Climbing FlightAware ADS-B
Thu 10:38:30 AM -20.7330 -40.4460 214° Southwest 396 456 18,000 1,800 Climbing FlightAware ADS-B
Thu 10:39:21 AM -20.8110 -40.5010 213° Southwest 400 460 19,500 1,778 Climbing FlightAware ADS-B
Thu 10:39:51 AM -20.8580 -40.5360 215° Southwest 401 461 20,400 1,704 Climbing FlightAware ADS-B
Thu 10:40:42 AM -20.9360 -40.5950 215° Southwest 408 470 21,800 1,467 Climbing FlightAware ADS-B
Thu 10:41:21 AM -20.9890 -40.6380 217° Southwest 414 476 22,600 1,425 Climbing FlightAware ADS-B
Thu 10:42:02 AM -21.0540 -40.6920 218° Southwest 419 482 23,700 1,459 Climbing FlightAware ADS-B
Thu 10:42:35 AM -21.1010 -40.7300 217° Southwest 421 484 24,400 1,326 Climbing FlightAware ADS-B
Thu 10:43:28 AM -21.1890 -40.8030 218° Southwest 429 494 25,600 1,419 Climbing FlightAware ADS-B
Thu 10:44:08 AM -21.2540 -40.8560 217° Southwest 431 496 26,600 1,429 Climbing FlightAware ADS-B
Thu 10:44:52 AM -21.3140 -40.9050 217° Southwest 428 493 27,600 1,253 Climbing FlightAware ADS-B
Thu 10:45:39 AM -21.4010 -40.9760 217° Southwest 435 501 28,500 539 Climbing FlightAware ADS-B
Thu 10:46:21 AM -21.3940 -40.9710 34° Northeast 433 498 28,400 787 Descending FlightAware ADS-B
Thu 10:47:41 AM -21.6000 -41.1410 217° Southwest 456 525 30,100 1,059 Climbing FlightAware ADS-B
Thu 10:48:20 AM -21.6620 -41.1920 217° Southwest 461 531 30,500 857 Climbing FlightAware ADS-B
Thu 10:48:51 AM -21.7090 -41.2310 218° Southwest 461 531 31,100 1,235 Climbing FlightAware ADS-B
Thu 10:49:28 AM -21.7780 -41.2890 218° Southwest 458 527 31,900 1,481 Climbing FlightAware ADS-B
Thu 10:50:08 AM -21.8460 -41.3470 218° Southwest 449 517 33,000 1,500 Climbing FlightAware ADS-B
Thu 10:50:48 AM -21.9080 -41.3990 218° Southwest 442 509 33,900 1,187 Climbing FlightAware ADS-B
Thu 10:51:39 AM -21.9830 -41.4770 224° Southwest 442 509 34,800 783 Climbing FlightAware ADS-B
Thu 10:52:20 AM -22.0290 -41.5420 233° Southwest 444 511 35,100 800 Climbing FlightAware ADS-B
Thu 10:53:09 AM -22.0970 -41.6390 233° Southwest 441 507 36,000 581 Climbing FlightAware ADS-B
Thu 10:53:53 AM -22.1520 -41.7170 233° Southwest 437 503 36,000  Level FlightAware ADS-B
Thu 10:54:33 AM -22.1990 -41.7850 233° Southwest 441 507 36,000  Level FlightAware ADS-B
Thu 10:55:15 AM -22.2520 -41.8590 232° Southwest 440 506 36,000  Level FlightAware ADS-B
Thu 10:55:50 AM -22.2920 -41.9170 233° Southwest 441 507 36,000  Level FlightAware ADS-B
Thu 10:56:54 AM -22.3730 -42.0320 233° Southwest 442 509 36,000  Level FlightAware ADS-B
Thu 10:57:37 AM -22.4260 -42.1080 233° Southwest 441 507 36,000  Level FlightAware ADS-B
Thu 10:58:21 AM -22.4810 -42.1870 233° Southwest 441 507 36,000  Level FlightAware ADS-B
Thu 10:59:05 AM -22.5340 -42.2640 233° Southwest 441 507 36,000  Level FlightAware ADS-B
Thu 10:59:46 AM -22.5840 -42.3360 233° Southwest 440 506 36,000  Level FlightAware ADS-B
Thu 11:00:31 AM -22.6400 -42.4160 233° Southwest 438 504 36,000  Level FlightAware ADS-B
Thu 11:01:07 AM -22.6830 -42.4780 233° Southwest 438 504 36,000  Level FlightAware ADS-B
Thu 11:01:53 AM -22.7390 -42.5590 233° Southwest 438 504 36,000  Level FlightAware ADS-B
Thu 11:02:27 AM -22.7800 -42.6180 233° Southwest 440 506 36,000  Level FlightAware ADS-B
Thu 11:02:56 AM -22.8160 -42.6710 234° Southwest 441 507 36,000  Level FlightAware ADS-B
Thu 11:03:40 AM -22.8690 -42.7480 233° Southwest 441 507 36,000  Level FlightAware ADS-B
Thu 11:04:13 AM -22.9090 -42.8060 233° Southwest 439 505 36,000  Level FlightAware ADS-B
Thu 11:04:54 AM -22.9480 -42.8760 239° Southwest 439 505 36,000  Level FlightAware ADS-B
Thu 11:05:35 AM -22.9830 -42.9670 247° West 439 505 36,000  Level FlightAware ADS-B
Thu 11:06:25 AM -23.0070 -43.0740 256° West 439 505 36,000  Level FlightAware ADS-B
Thu 11:07:03 AM -23.0260 -43.1560 256° West 440 506 36,000  Level FlightAware ADS-B
Thu 11:07:54 AM -23.0490 -43.2610 257° West 441 507 36,000  Level FlightAware ADS-B
Thu 11:08:35 AM -23.0690 -43.3530 257° West 440 506 36,000  Level FlightAware ADS-B
Thu 11:09:47 AM -23.1020 -43.5080 257° West 439 505 36,000  Level FlightAware ADS-B
Thu 11:10:27 AM -23.1210 -43.5940 256° West 440 506 36,000  Level FlightAware ADS-B
Thu 11:11:05 AM -23.1380 -43.6750 257° West 441 507 36,000  Level FlightAware ADS-B
Thu 11:11:49 AM -23.1550 -43.7520 256° West 443 510 36,000  Level FlightAware ADS-B
Thu 11:12:21 AM -23.1740 -43.8400 257° West 447 514 36,000  Level FlightAware ADS-B
Thu 11:13:26 AM -23.2040 -43.9830 257° West 450 518 36,000  Level FlightAware ADS-B
Thu 11:14:01 AM -23.2200 -44.0600 257° West 451 519 36,000 80 Level FlightAware ADS-B
Thu 11:14:41 AM -23.2390 -44.1470 257° West 450 518 36,100  Climbing FlightAware ADS-B
Thu 11:15:16 AM -23.2550 -44.2250 257° West 449 517 36,000 -80 Descending FlightAware ADS-B
Thu 11:15:56 AM -23.2740 -44.3140 257° West 449 517 36,000  Level FlightAware ADS-B
Thu 11:17:03 AM -23.3050 -44.4610 257° West 450 518 36,000  Level FlightAware ADS-B
Thu 11:17:48 AM -23.3260 -44.5580 257° West 451 519 36,000  Level FlightAware ADS-B
Thu 11:18:23 AM -23.3420 -44.6370 258° West 452 520 36,000  Level FlightAware ADS-B
Thu 11:19:01 AM -23.3600 -44.7210 257° West 452 520 36,000  Level FlightAware ADS-B
Thu 11:19:30 AM -23.3730 -44.7840 257° West 450 518 36,000  Level FlightAware ADS-B
Thu 11:20:28 AM -23.3990 -44.9100 257° West 447 514 36,000 -254 Level FlightAware ADS-B
Thu 11:21:28 AM -23.4260 -45.0410 257° West 445 512 35,500 -1,165 Descending FlightAware ADS-B
Thu 11:22:11 AM -23.4450 -45.1290 257° West 447 514 34,000 -2,329 Descending FlightAware ADS-B
Thu 11:22:53 AM -23.4660 -45.2280 257° West 444 511 32,200 -2,341 Descending FlightAware ADS-B
Thu 11:23:33 AM -23.4840 -45.3140 257° West 438 504 30,800 -2,118 Descending FlightAware ADS-B
Thu 11:24:18 AM -23.5050 -45.4110 257° West 426 490 29,200 -2,100 Descending FlightAware ADS-B
Thu 11:24:53 AM -23.5200 -45.4830 257° West 418 481 28,000 -1,629 Descending FlightAware ADS-B
Thu 11:25:28 AM -23.5340 -45.5540 258° West 397 457 27,300 -1,063 Descending FlightAware ADS-B
Thu 11:26:12 AM -23.5490 -45.6290 258° West 369 425 26,600 -1,350 Descending FlightAware ADS-B
Thu 11:26:48 AM -23.5630 -45.7000 258° West 357 411 25,500 -1,909 Descending FlightAware ADS-B
Thu 11:27:18 AM -23.5740 -45.7530 257° West 354 407 24,500 -1,909 Descending FlightAware ADS-B
Thu 11:27:54 AM -23.5860 -45.8140 258° West 349 402 23,400 -1,600 Descending FlightAware ADS-B
Thu 11:28:33 AM -23.6000 -45.8800 257° West 337 388 22,500 -1,304 Descending FlightAware ADS-B
Thu 11:29:03 AM -23.6080 -45.9310 260° West 326 375 21,900 -1,385 Descending FlightAware ADS-B
Thu 11:29:38 AM -23.6160 -45.9870 261° West 322 371 21,000 -1,600 Descending FlightAware ADS-B
Thu 11:30:18 AM -23.6250 -46.0500 261° West 317 365 19,900 -1,667 Descending FlightAware ADS-B
Thu 11:31:08 AM -23.6360 -46.1300 261° West 318 366 18,500 -1,600 Descending FlightAware ADS-B
Thu 11:31:48 AM -23.6440 -46.1930 262° West 311 358 17,500 -1,500 Descending FlightAware ADS-B
Thu 11:32:28 AM -23.6530 -46.2540 261° West 305 351 16,500 -1,500 Descending FlightAware ADS-B
Thu 11:33:08 AM -23.6610 -46.3130 262° West 306 352 15,500 -1,500 Descending FlightAware ADS-B
Thu 11:33:28 AM -23.6640 -46.3450 264° West 306 352 15,000 -1,275 Descending FlightAware ADS-B
Thu 11:34:28 AM -23.6090 -46.4010 317° Northwest 289 333 13,800 -1,263 Descending FlightAware ADS-B
Thu 11:35:03 AM -23.5640 -46.4170 342° North 277 319 13,000 -1,280 Descending FlightAware ADS-B
Thu 11:35:43 AM -23.5170 -46.4350 341° North 271 312 12,200 -1,350 Descending FlightAware ADS-B
Thu 11:36:23 AM -23.4660 -46.4540 341° North 275 316 11,200 -1,342 Descending FlightAware ADS-B
Thu 11:36:59 AM -23.4230 -46.4700 341° North 268 308 10,500 -1,250 Descending FlightAware ADS-B
Thu 11:37:35 AM -23.3820 -46.4850 341° North 257 296 9,700 -1,385 Descending FlightAware ADS-B
Thu 11:38:04 AM -23.3480 -46.4970 342° North 253 291 9,000 -1,143 Descending FlightAware ADS-B
Thu 11:38:38 AM -23.3100 -46.4830 19° North 249 287 8,500 -1,114 Descending FlightAware ADS-B
Thu 11:39:14 AM -23.2950 -46.4460 66° East 251 289 7,700 -1,345 Descending FlightAware ADS-B
Thu 11:39:36 AM -23.2840 -46.4170 68° East 250 288 7,200 -1,099 Descending FlightAware ADS-B
Thu 11:40:25 AM -23.2730 -46.3610 78° East 241 277 6,400 -1,071 Descending FlightAware ADS-B
Thu 11:41:00 AM -23.2870 -46.3230 112° Southeast 237 273 5,700 -771 Descending FlightAware ADS-B
Thu 11:41:35 AM -23.3000 -46.2840 110° East 233 268 5,500 -277 Descending FlightAware ADS-B
Thu 11:42:05 AM -23.3150 -46.2520 117° Southeast 237 273 5,400 -267 Descending FlightAware ADS-B
Thu 11:42:20 AM -23.3310 -46.2460 161° South 231 266 5,300 -545 Descending FlightAware ADS-B
Thu 11:43:00 AM -23.3650 -46.2700 213° Southwest 218 251 4,900 -424 Descending FlightAware ADS-B
Thu 11:43:45 AM -23.3900 -46.3050 232° Southwest 176 203 4,700 -257 Descending FlightAware ADS-B
Thu 11:44:10 AM -23.3950 -46.3250 255° West 160 184 4,600 -554 Descending FlightAware ADS-B
Thu 11:44:50 AM -23.4030 -46.3560 254° West 150 173 4,100 -706 Descending FlightAware ADS-B
Thu 11:45:35 AM -23.4120 -46.3880 253° West 148 170 3,600 -758 Descending FlightAware ADS-B
Thu 11:46:25 AM -23.4220 -46.4250 254° West 151 174 2,900 -800 Descending FlightAware ADS-B
Thu 11:47:05 AM -23.4300 -46.4540 253° West 143 165 2,400 -429 Descending FlightAware ADS-B
Thu 11:47:35 AM -23.4340 -46.4720 256° West 143 165 2,400  Level FlightAware ADS-B
Thu 11:55:47 AM -23.4270 -46.4830 270° West -293 Descending FlightAware ADS-B
Thu 11:59:21 AM -23.4270 -46.4820 90° East  Level FlightAware ADS-B
Thu 12:00:11 PM -23.4270 -46.4830 270° West  Level FlightAware ADS-B

Login

Don't have an account? Register now (free) for customized features, flight alerts, and more!